Terminal Aerodrome Forecast
Issued by NWS Cleveland, OH

Home | Current Version | Previous Version | Graphics & Text | Print | Product List | Glossary On
Versions: 1 2 3 4 5 6 7 8 9 10 11 12 13 14 15 16 17 18 19 20 21 22 23
941
FTUS41 KCLE 202338
TAFTOL
TAF
KTOL 202338Z 2100/2124 24005KT P6SM OVC008
      TEMPO 2100/2104 SCT008 OVC025
     FM210400 18005KT 3SM BR OVC004
     FM211000 14005KT 1/2SM FG OVC002
     FM211500 18008KT 5SM BR OVC015
     FM211800 19010KT P6SM BKN035=

USA.gov is the U.S. government's official web portal to all federal, state and local government web resources and services.